createdAt,value
2022-08-08T00:00:55.847Z,38.74
2022-08-08T00:02:44.711Z,38.83
2022-08-08T00:05:44.105Z,38.84
2022-08-08T00:08:49.112Z,38.92
2022-08-08T00:11:25.128Z,38.60
2022-08-08T00:14:48.579Z,38.74
2022-08-08T00:17:23.935Z,38.61
2022-08-08T00:20:08.048Z,38.45
2022-08-08T00:22:48.504Z,38.32
2022-08-08T00:25:24.725Z,38.52
2022-08-08T00:28:01.136Z,38.49
2022-08-08T00:30:45.231Z,38.32
2022-08-08T00:34:18.118Z,38.35
2022-08-08T00:36:34.984Z,38.41
2022-08-08T00:41:07.362Z,38.21
2022-08-08T00:42:42.630Z,38.11
2022-08-08T00:45:43.828Z,38.38
2022-08-08T00:48:36.095Z,38.34
2022-08-08T00:51:48.569Z,38.26
2022-08-08T00:54:49.685Z,38.51
2022-08-08T00:57:40.700Z,38.33
2022-08-08T01:00:17.564Z,38.34
2022-08-08T01:03:59.069Z,38.20
2022-08-08T01:06:30.701Z,38.42
2022-08-08T01:09:41.677Z,38.21
2022-08-08T01:12:38.473Z,38.38
2022-08-08T01:15:43.773Z,38.42
2022-08-08T01:18:53.321Z,38.25
2022-08-08T01:24:37.663Z,38.38
2022-08-08T01:27:33.142Z,38.44
2022-08-08T01:30:40.899Z,38.37
2022-08-08T01:33:43.225Z,38.46
2022-08-08T01:36:36.645Z,38.33
2022-08-08T01:39:20.094Z,38.41
2022-08-08T01:42:35.495Z,38.41
2022-08-08T01:45:31.764Z,38.26
2022-08-08T01:48:33.043Z,38.28
2022-08-08T01:52:55.763Z,38.15
2022-08-08T01:55:26.481Z,38.21
2022-08-08T01:58:19.266Z,38.29
2022-08-08T02:01:24.311Z,38.46
2022-08-08T02:04:23.818Z,38.28
2022-08-08T02:07:05.478Z,38.35
2022-08-08T02:10:11.232Z,38.31
2022-08-08T02:13:00.545Z,38.38
2022-08-08T02:15:41.023Z,38.18
2022-08-08T02:18:18.635Z,38.07
2022-08-08T02:21:37.813Z,38.34
2022-08-08T02:24:17.761Z,38.46
2022-08-08T02:27:00.757Z,38.17
2022-08-08T02:29:56.765Z,38.35
2022-08-08T02:32:39.145Z,38.10
2022-08-08T02:35:22.364Z,38.29
2022-08-08T02:38:16.020Z,38.54
2022-08-08T02:42:03.726Z,38.25
2022-08-08T02:44:42.989Z,38.11
2022-08-08T02:47:56.408Z,38.38
2022-08-08T02:50:31.644Z,38.44
2022-08-08T02:53:17.013Z,38.09
2022-08-08T02:56:09.864Z,38.37
2022-08-08T02:59:26.011Z,38.31
2022-08-08T03:01:59.277Z,38.27
2022-08-08T03:05:09.237Z,38.22
2022-08-08T03:08:27.730Z,38.40
2022-08-08T03:11:48.062Z,38.19
2022-08-08T03:15:57.090Z,37.78
2022-08-08T03:17:40.651Z,37.26
2022-08-08T03:20:11.367Z,37.07
2022-08-08T03:22:57.119Z,36.93
2022-08-08T03:25:36.105Z,36.73
2022-08-08T03:28:35.873Z,36.72
2022-08-08T03:31:25.408Z,36.57
2022-08-08T03:33:58.886Z,36.70
2022-08-08T03:36:30.307Z,36.70
2022-08-08T03:39:15.178Z,36.36
2022-08-08T03:42:27.023Z,36.75
2022-08-08T03:44:38.646Z,36.70
2022-08-08T03:47:20.336Z,36.80
2022-08-08T03:49:57.803Z,36.90
2022-08-08T03:52:32.185Z,37.08
2022-08-08T03:55:10.004Z,36.90
2022-08-08T03:58:30.877Z,36.89
2022-08-08T04:00:27.629Z,36.76
2022-08-08T04:03:11.432Z,36.80
2022-08-08T04:05:39.914Z,37.02
2022-08-08T04:08:33.860Z,37.21
2022-08-08T04:11:11.129Z,37.42
2022-08-08T04:14:03.221Z,37.83
2022-08-08T04:16:38.923Z,37.86
2022-08-08T04:19:24.184Z,37.72
2022-08-08T04:21:57.286Z,38.12
2022-08-08T04:24:30.435Z,38.13
2022-08-08T04:26:59.946Z,38.11
2022-08-08T04:29:33.323Z,37.97
2022-08-08T04:32:10.713Z,37.92
2022-08-08T04:34:49.236Z,37.97
2022-08-08T04:37:31.771Z,37.84
2022-08-08T04:40:06.412Z,37.82
2022-08-08T04:42:46.669Z,37.60
2022-08-08T04:45:27.588Z,37.76
2022-08-08T04:48:00.673Z,37.77
2022-08-08T04:50:38.620Z,37.85
2022-08-08T04:54:27.325Z,37.65
2022-08-08T04:56:06.838Z,37.67
2022-08-08T04:58:34.922Z,37.66
2022-08-08T05:01:09.121Z,37.64
2022-08-08T05:04:09.636Z,37.69
2022-08-08T05:06:29.366Z,37.69
2022-08-08T05:09:02.653Z,37.73
2022-08-08T05:11:39.510Z,37.77
2022-08-08T05:14:12.010Z,37.62
2022-08-08T05:16:52.755Z,37.69
2022-08-08T05:20:09.271Z,37.65
2022-08-08T05:22:11.845Z,37.94
2022-08-08T05:24:48.226Z,37.88
2022-08-08T05:27:15.766Z,38.02
2022-08-08T05:29:42.796Z,38.08
2022-08-08T05:32:12.515Z,38.07
2022-08-08T05:34:46.395Z,38.15
2022-08-08T05:37:19.074Z,38.30
2022-08-08T05:39:52.773Z,38.20
2022-08-08T05:42:27.591Z,38.14
2022-08-08T05:44:55.300Z,38.36
2022-08-08T05:47:41.648Z,38.37
2022-08-08T05:50:17.914Z,38.52
2022-08-08T05:52:44.682Z,38.30
2022-08-08T05:55:14.268Z,38.25
2022-08-08T05:58:04.037Z,38.35
2022-08-08T06:00:35.081Z,38.29
2022-08-08T06:03:17.552Z,38.21
2022-08-08T06:06:01.388Z,38.41
2022-08-08T06:08:40.453Z,38.39
2022-08-08T06:11:22.414Z,38.36
2022-08-08T06:13:55.151Z,38.59
2022-08-08T06:16:27.494Z,38.67
2022-08-08T06:19:02.030Z,38.50
2022-08-08T06:21:51.223Z,38.52
2022-08-08T06:24:31.130Z,38.67
2022-08-08T06:27:05.049Z,38.79
2022-08-08T06:30:01.163Z,38.99
2022-08-08T06:32:58.117Z,39.17
2022-08-08T06:36:04.549Z,39.16
2022-08-08T06:38:27.547Z,39.21
2022-08-08T06:41:13.215Z,39.29
2022-08-08T06:43:56.851Z,39.25
2022-08-08T06:46:30.083Z,39.11
2022-08-08T06:49:00.506Z,39.03
2022-08-08T06:51:31.434Z,39.21
2022-08-08T06:54:16.269Z,39.41
2022-08-08T06:56:51.467Z,39.36
2022-08-08T06:59:19.949Z,39.56
2022-08-08T07:02:26.723Z,39.55
2022-08-08T07:05:05.438Z,39.35
2022-08-08T07:08:00.786Z,39.63
2022-08-08T07:10:42.078Z,39.21
2022-08-08T07:13:17.882Z,39.08
2022-08-08T07:16:12.348Z,39.20
2022-08-08T07:19:06.357Z,39.08
2022-08-08T07:22:11.983Z,39.23
2022-08-08T07:25:01.750Z,39.08
2022-08-08T07:28:00.751Z,39.23
2022-08-08T07:30:25.390Z,38.96
2022-08-08T07:32:54.955Z,38.99
2022-08-08T07:35:28.768Z,38.97
2022-08-08T07:38:09.810Z,39.00
2022-08-08T07:40:45.945Z,39.05
2022-08-08T07:43:14.841Z,38.93
2022-08-08T07:46:04.732Z,38.99
2022-08-08T07:48:34.428Z,38.89
2022-08-08T07:51:04.499Z,38.93
2022-08-08T07:54:01.813Z,38.93
2022-08-08T07:56:48.960Z,38.86
2022-08-08T07:59:19.452Z,38.64
2022-08-08T08:02:36.489Z,38.82
2022-08-08T08:04:52.238Z,38.77
2022-08-08T08:07:31.682Z,38.71
2022-08-08T08:10:03.769Z,38.74
2022-08-08T08:12:43.051Z,38.80
2022-08-08T08:15:15.701Z,38.80
2022-08-08T08:17:48.958Z,38.77
2022-08-08T08:20:29.705Z,38.91
2022-08-08T08:22:59.560Z,38.85
2022-08-08T08:25:40.891Z,38.77
2022-08-08T08:28:11.054Z,38.84
2022-08-08T08:30:49.739Z,38.93
2022-08-08T08:33:17.466Z,38.75
2022-08-08T08:36:19.041Z,38.96
2022-08-08T08:38:36.248Z,38.79
2022-08-08T08:41:17.704Z,38.86
2022-08-08T08:43:50.103Z,38.92
2022-08-08T08:46:19.633Z,38.58
2022-08-08T08:48:54.312Z,38.70
2022-08-08T08:51:25.887Z,38.66
2022-08-08T08:53:59.647Z,38.67
2022-08-08T08:56:31.895Z,38.54
2022-08-08T08:59:05.845Z,38.34
2022-08-08T09:01:43.898Z,38.30
2022-08-08T09:04:30.130Z,38.21
2022-08-08T09:06:59.044Z,38.10
2022-08-08T09:09:39.778Z,38.13
2022-08-08T09:12:19.782Z,38.34
2022-08-08T09:14:50.155Z,38.33
2022-08-08T09:17:41.107Z,38.48
2022-08-08T09:21:58.681Z,38.27
2022-08-08T09:23:04.509Z,38.32
2022-08-08T09:26:02.446Z,38.19
2022-08-08T09:28:35.656Z,38.09
2022-08-08T09:31:16.739Z,37.65
2022-08-08T09:34:15.092Z,37.65
2022-08-08T09:37:10.191Z,37.71
2022-08-08T09:39:44.060Z,37.39
2022-08-08T09:42:22.425Z,37.15
2022-08-08T09:45:03.590Z,37.39
2022-08-08T09:50:09.988Z,37.18
2022-08-08T09:52:55.451Z,37.12
2022-08-08T09:55:51.235Z,37.08
2022-08-08T09:58:27.723Z,37.21
2022-08-08T10:01:14.904Z,36.79
2022-08-08T10:03:57.430Z,36.96
2022-08-08T10:06:29.441Z,36.84
2022-08-08T10:08:57.409Z,36.84
2022-08-08T10:12:25.949Z,36.89
2022-08-08T10:14:35.425Z,36.81
2022-08-08T10:16:58.675Z,36.96
2022-08-08T10:19:57.321Z,36.73
2022-08-08T10:22:26.470Z,36.92
2022-08-08T10:25:05.592Z,36.90
2022-08-08T10:27:42.074Z,36.72
2022-08-08T10:30:16.200Z,36.85
2022-08-08T10:33:00.359Z,36.81
2022-08-08T10:36:07.234Z,36.63
2022-08-08T10:38:17.690Z,36.86
2022-08-08T10:40:51.016Z,36.85
2022-08-08T10:43:18.676Z,36.73
2022-08-08T10:45:57.175Z,36.92
2022-08-08T10:48:57.240Z,36.62
2022-08-08T10:51:26.274Z,36.72
2022-08-08T10:53:57.917Z,36.66
2022-08-08T10:56:27.909Z,36.82
2022-08-08T10:59:01.073Z,36.50
2022-08-08T11:01:33.679Z,36.91
2022-08-08T11:04:04.696Z,36.98
2022-08-08T11:06:35.596Z,36.90
2022-08-08T11:09:09.983Z,37.21
2022-08-08T11:12:04.985Z,37.09
2022-08-08T11:14:33.746Z,37.38
2022-08-08T11:17:02.954Z,37.32
2022-08-08T11:19:33.643Z,37.67
2022-08-08T11:22:03.959Z,37.50
2022-08-08T11:24:35.805Z,37.25
2022-08-08T11:27:19.118Z,37.53
2022-08-08T11:30:04.116Z,37.27
2022-08-08T11:32:38.844Z,37.43
2022-08-08T11:35:25.936Z,37.17
2022-08-08T11:38:38.691Z,37.26
2022-08-08T11:40:51.214Z,37.19
2022-08-08T11:43:18.921Z,37.36
2022-08-08T11:46:09.680Z,37.10
2022-08-08T11:48:38.493Z,37.28
2022-08-08T11:51:29.469Z,37.55
2022-08-08T11:53:58.926Z,37.34
2022-08-08T11:56:35.367Z,37.29
2022-08-08T11:59:10.639Z,37.58
2022-08-08T12:01:37.889Z,37.68
2022-08-08T12:04:06.922Z,37.31
2022-08-08T12:06:33.769Z,37.31
2022-08-08T12:09:08.306Z,37.38
2022-08-08T12:11:40.049Z,37.26
2022-08-08T12:14:07.821Z,37.16
2022-08-08T12:16:48.886Z,37.09
2022-08-08T12:19:15.954Z,37.11
2022-08-08T12:21:59.312Z,37.36
2022-08-08T12:24:42.781Z,37.42
2022-08-08T12:27:18.900Z,37.11
2022-08-08T12:29:56.339Z,37.04
2022-08-08T12:32:23.285Z,36.84
2022-08-08T12:35:04.673Z,37.02
2022-08-08T12:37:43.123Z,37.09
2022-08-08T12:40:23.554Z,37.16
2022-08-08T12:42:52.961Z,36.99
2022-08-08T12:45:58.543Z,37.06
2022-08-08T12:48:36.366Z,37.10
2022-08-08T12:51:04.636Z,37.33
2022-08-08T12:53:35.218Z,37.13
2022-08-08T12:56:19.053Z,37.21
2022-08-08T12:58:50.280Z,37.19
2022-08-08T13:01:16.940Z,37.39
2022-08-08T13:03:56.642Z,37.34
2022-08-08T13:06:23.191Z,37.34
2022-08-08T13:08:56.475Z,36.96
2022-08-08T13:12:19.754Z,36.88
2022-08-08T13:14:36.917Z,36.45
2022-08-08T13:17:05.996Z,36.25
2022-08-08T13:20:06.490Z,36.11
2022-08-08T13:22:38.867Z,36.35
2022-08-08T13:25:16.832Z,36.28
2022-08-08T13:27:44.494Z,36.11
2022-08-08T13:30:18.788Z,36.19
2022-08-08T13:35:29.043Z,36.29
2022-08-08T13:38:06.594Z,36.37
2022-08-08T13:40:35.060Z,35.96
2022-08-08T13:43:03.935Z,36.03
2022-08-08T13:45:31.419Z,35.78
2022-08-08T13:48:03.087Z,35.87
2022-08-08T13:50:44.048Z,35.64
2022-08-08T13:53:36.208Z,35.77
2022-08-08T13:56:11.523Z,35.95
2022-08-08T13:58:57.500Z,35.86
2022-08-08T14:01:52.743Z,35.67
2022-08-08T14:04:25.084Z,35.88
2022-08-08T14:07:03.916Z,35.84
2022-08-08T14:10:02.368Z,35.44
2022-08-08T14:12:28.717Z,35.43
2022-08-08T14:14:55.642Z,35.31
2022-08-08T14:17:57.989Z,35.21
2022-08-08T14:20:15.741Z,35.37
2022-08-08T14:23:10.326Z,35.27
2022-08-08T14:25:45.506Z,35.21
2022-08-08T14:28:22.459Z,35.05
2022-08-08T14:31:09.294Z,34.99
2022-08-08T14:33:36.752Z,35.09
2022-08-08T14:36:09.688Z,35.12
2022-08-08T14:38:52.006Z,34.94
2022-08-08T14:41:54.132Z,34.88
2022-08-08T14:44:16.959Z,35.13
2022-08-08T14:47:00.126Z,35.12
2022-08-08T14:49:51.415Z,34.89
2022-08-08T14:52:21.216Z,35.02
2022-08-08T14:54:49.967Z,34.86
2022-08-08T14:57:17.015Z,34.68
2022-08-08T14:59:50.930Z,34.78
2022-08-08T15:02:30.984Z,34.91
2022-08-08T15:05:10.580Z,34.84
2022-08-08T15:07:40.680Z,34.71
2022-08-08T15:10:09.567Z,34.55
2022-08-08T15:12:37.316Z,34.61
2022-08-08T15:15:06.767Z,34.64
2022-08-08T15:17:37.147Z,34.93
2022-08-08T15:20:05.571Z,34.65
2022-08-08T15:22:34.815Z,34.69
2022-08-08T15:25:03.213Z,34.91
2022-08-08T15:28:05.072Z,34.75
2022-08-08T15:30:23.119Z,34.72
2022-08-08T15:32:49.873Z,34.83
2022-08-08T15:35:17.864Z,34.68
2022-08-08T15:37:47.843Z,34.40
2022-08-08T15:40:15.459Z,34.37
2022-08-08T15:42:45.403Z,34.56
2022-08-08T15:45:14.310Z,34.36
2022-08-08T15:47:40.928Z,34.16
2022-08-08T15:50:47.542Z,34.43
2022-08-08T15:53:17.770Z,34.47
2022-08-08T15:55:44.842Z,34.38
2022-08-08T15:58:13.932Z,34.51
2022-08-08T16:00:40.727Z,34.39
2022-08-08T16:03:16.961Z,34.66
2022-08-08T16:06:01.403Z,34.33
2022-08-08T16:08:29.349Z,34.38
2022-08-08T16:13:27.450Z,34.57
2022-08-08T16:13:45.146Z,34.51
2022-08-08T16:16:17.454Z,34.36
2022-08-08T16:18:56.520Z,34.32
2022-08-08T16:21:30.755Z,34.34
2022-08-08T16:24:02.879Z,34.40
2022-08-08T16:26:35.066Z,34.57
2022-08-08T16:29:15.745Z,34.60
2022-08-08T16:31:49.179Z,34.70
2022-08-08T16:34:19.066Z,34.73
2022-08-08T16:36:45.736Z,34.61
2022-08-08T16:39:59.854Z,34.78
2022-08-08T16:42:06.650Z,34.94
2022-08-08T16:44:47.455Z,34.94
2022-08-08T16:47:40.127Z,35.26
2022-08-08T16:50:13.761Z,35.11
2022-08-08T16:55:04.078Z,35.27
2022-08-08T16:55:52.855Z,35.40
2022-08-08T16:58:26.349Z,35.10
2022-08-08T17:00:55.194Z,35.33
2022-08-08T17:03:25.095Z,35.34
2022-08-08T17:06:02.133Z,35.35
2022-08-08T17:08:29.188Z,35.48
2022-08-08T17:10:58.942Z,35.72
2022-08-08T17:13:50.197Z,35.81
2022-08-08T17:16:24.513Z,35.77
2022-08-08T17:21:13.620Z,36.08
2022-08-08T17:24:00.674Z,36.19
2022-08-08T17:26:29.169Z,36.25
2022-08-08T17:28:56.684Z,36.43
2022-08-08T17:31:44.170Z,36.40
2022-08-08T17:34:48.507Z,36.50
2022-08-08T17:37:00.645Z,36.71
2022-08-08T17:40:04.568Z,36.54
2022-08-08T17:42:18.498Z,37.04
2022-08-08T17:44:49.704Z,36.85
2022-08-08T17:47:23.920Z,37.20
2022-08-08T17:50:01.476Z,37.00
2022-08-08T17:52:35.416Z,37.19
2022-08-08T17:56:03.825Z,37.43
2022-08-08T17:57:52.475Z,37.30
2022-08-08T18:00:26.074Z,37.67
2022-08-08T18:03:08.316Z,37.49
2022-08-08T18:05:49.411Z,37.64
2022-08-08T18:08:25.157Z,37.72
2022-08-08T18:11:15.051Z,37.93
2022-08-08T18:13:46.933Z,37.79
2022-08-08T18:16:17.318Z,38.26
2022-08-08T18:18:53.869Z,38.26
2022-08-08T18:21:59.173Z,38.51
2022-08-08T18:24:19.596Z,38.76
2022-08-08T18:26:53.873Z,38.94
2022-08-08T18:29:34.667Z,38.76
2022-08-08T18:32:07.562Z,39.05
2022-08-08T18:34:36.370Z,38.83
2022-08-08T18:37:06.626Z,39.15
2022-08-08T18:39:36.694Z,39.06
2022-08-08T18:42:04.850Z,39.36
2022-08-08T18:44:36.100Z,39.44
2022-08-08T18:47:04.236Z,39.57
2022-08-08T18:49:32.629Z,39.41
2022-08-08T18:52:16.876Z,39.71
2022-08-08T18:54:59.567Z,39.75
2022-08-08T18:57:36.937Z,39.80
2022-08-08T19:00:15.463Z,39.75
2022-08-08T19:02:48.407Z,39.81
2022-08-08T19:05:22.054Z,40.06
2022-08-08T19:07:52.345Z,40.38
2022-08-08T19:10:19.550Z,40.21
2022-08-08T19:15:10.272Z,40.39
2022-08-08T19:17:47.984Z,40.68
2022-08-08T19:20:16.312Z,40.53
2022-08-08T19:22:44.542Z,40.60
2022-08-08T19:26:02.041Z,40.67
2022-08-08T19:27:59.970Z,40.75
2022-08-08T19:30:28.081Z,40.74
2022-08-08T19:33:00.549Z,40.94
2022-08-08T19:35:44.170Z,41.09
2022-08-08T19:38:21.960Z,41.28
2022-08-08T19:40:55.922Z,41.11
2022-08-08T19:43:28.179Z,41.07
2022-08-08T19:45:58.694Z,41.09
2022-08-08T19:48:30.749Z,41.36
2022-08-08T19:51:01.068Z,41.55
2022-08-08T19:53:51.358Z,41.62
2022-08-08T19:56:25.820Z,41.78
2022-08-08T19:59:07.521Z,42.09
2022-08-08T20:02:01.314Z,42.23
2022-08-08T20:04:23.605Z,42.40
2022-08-08T20:06:50.824Z,42.46
2022-08-08T20:09:22.888Z,42.55
2022-08-08T20:11:50.557Z,42.75
2022-08-08T20:14:33.971Z,42.92
2022-08-08T20:17:03.711Z,43.04
2022-08-08T20:19:34.832Z,43.22
2022-08-08T20:22:13.134Z,43.36
2022-08-08T20:24:48.364Z,43.62
2022-08-08T20:27:20.356Z,43.53
2022-08-08T20:29:55.586Z,43.71
2022-08-08T20:32:28.662Z,43.70
2022-08-08T20:35:00.825Z,43.86
2022-08-08T20:37:47.006Z,43.96
2022-08-08T20:40:17.039Z,44.27
2022-08-08T20:42:54.841Z,44.34
2022-08-08T20:45:57.851Z,44.75
2022-08-08T20:48:09.491Z,44.96
2022-08-08T20:50:36.406Z,45.17
2022-08-08T20:53:06.807Z,44.98
2022-08-08T20:55:50.985Z,44.81
2022-08-08T20:58:23.073Z,44.55
2022-08-08T21:00:50.092Z,44.57
2022-08-08T21:03:16.882Z,44.27
2022-08-08T21:05:49.345Z,44.07
2022-08-08T21:08:36.625Z,43.86
2022-08-08T21:11:12.852Z,43.66
2022-08-08T21:13:41.205Z,43.66
2022-08-08T21:16:17.802Z,43.43
2022-08-08T21:18:47.233Z,43.30
2022-08-08T21:21:20.465Z,43.23
2022-08-08T21:24:11.882Z,43.27
2022-08-08T21:26:51.180Z,42.97
2022-08-08T21:29:19.807Z,42.88
2022-08-08T21:31:53.379Z,43.05
2022-08-08T21:34:30.013Z,42.80
2022-08-08T21:36:58.253Z,43.07
2022-08-08T21:39:41.380Z,42.68
2022-08-08T21:42:12.572Z,42.55
2022-08-08T21:44:39.004Z,42.88
2022-08-08T21:48:04.480Z,42.67
2022-08-08T21:50:12.265Z,42.59
2022-08-08T21:54:31.287Z,42.54
2022-08-08T21:56:19.447Z,42.50
2022-08-08T21:58:13.807Z,42.47
2022-08-08T22:00:41.040Z,42.51
2022-08-08T22:03:07.730Z,42.27
2022-08-08T22:05:41.681Z,42.21
2022-08-08T22:08:08.345Z,42.42
2022-08-08T22:10:35.619Z,42.26
2022-08-08T22:13:17.067Z,42.25
2022-08-08T22:15:59.089Z,42.47
2022-08-08T22:18:31.105Z,42.28
2022-08-08T22:20:59.600Z,42.23
2022-08-08T22:23:38.247Z,42.25
2022-08-08T22:26:27.137Z,42.32
2022-08-08T22:29:14.853Z,42.25
2022-08-08T22:31:43.181Z,42.42
2022-08-08T22:34:12.437Z,42.27
2022-08-08T22:36:42.784Z,42.17
2022-08-08T22:39:09.716Z,42.23
2022-08-08T22:41:45.579Z,42.23
2022-08-08T22:44:13.011Z,42.19
2022-08-08T22:46:39.964Z,42.20
2022-08-08T22:49:06.836Z,42.15
2022-08-08T22:51:42.811Z,42.22
2022-08-08T22:54:33.969Z,42.20
2022-08-08T22:57:11.238Z,42.25
2022-08-08T22:59:52.713Z,42.39
2022-08-08T23:02:28.478Z,42.36
2022-08-08T23:04:58.560Z,42.26
2022-08-08T23:07:51.276Z,42.42
2022-08-08T23:10:21.433Z,42.46
2022-08-08T23:12:48.726Z,42.39
2022-08-08T23:16:37.965Z,42.20
2022-08-08T23:18:07.447Z,42.32
2022-08-08T23:20:34.152Z,42.32
2022-08-08T23:23:00.692Z,42.34
2022-08-08T23:25:27.185Z,42.39
2022-08-08T23:27:54.834Z,42.40
2022-08-08T23:30:22.446Z,42.38
2022-08-08T23:32:49.233Z,42.40
2022-08-08T23:35:17.035Z,42.32
2022-08-08T23:38:01.245Z,42.44
2022-08-08T23:40:29.159Z,42.32
2022-08-08T23:42:56.732Z,42.39
2022-08-08T23:49:00.409Z,42.38
2022-08-08T23:49:02.364Z,42.26
2022-08-08T23:50:57.062Z,42.46
2022-08-08T23:54:06.240Z,42.38
2022-08-08T23:56:10.576Z,42.50
2022-08-08T23:58:38.661Z,42.40
